sensor_id;sensor_type;location;lat;lon;timestamp;P1;durP1;ratioP1;P2;durP2;ratioP2
3613;SDS011;1821;50.936;6.854;2023-12-22T00:00:05;3.50;;;1.00;;
3613;SDS011;1821;50.936;6.854;2023-12-22T00:00:49;2.70;;;0.90;;
3613;SDS011;1821;50.936;6.854;2023-12-22T00:01:32;4.57;;;1.02;;
3613;SDS011;1821;50.936;6.854;2023-12-22T00:02:15;3.72;;;1.20;;
3613;SDS011;1821;50.936;6.854;2023-12-22T00:02:57;2.70;;;1.10;;
3613;SDS011;1821;50.936;6.854;2023-12-22T00:03:40;5.07;;;1.10;;
3613;SDS011;1821;50.936;6.854;2023-12-22T00:04:27;5.47;;;1.08;;
3613;SDS011;1821;50.936;6.854;2023-12-22T00:05:09;3.30;;;0.90;;
3613;SDS011;1821;50.936;6.854;2023-12-22T00:05:51;2.88;;;0.90;;
3613;SDS011;1821;50.936;6.854;2023-12-22T00:06:33;2.75;;;1.08;;
3613;SDS011;1821;50.936;6.854;2023-12-22T00:07:16;5.13;;;1.48;;
3613;SDS011;1821;50.936;6.854;2023-12-22T00:07:58;4.90;;;1.58;;
3613;SDS011;1821;50.936;6.854;2023-12-22T00:08:41;4.88;;;1.20;;
3613;SDS011;1821;50.936;6.854;2023-12-22T00:09:24;5.00;;;1.52;;
3613;SDS011;1821;50.936;6.854;2023-12-22T00:10:07;5.25;;;1.45;;
3613;SDS011;1821;50.936;6.854;2023-12-22T00:10:50;7.60;;;1.60;;
3613;SDS011;1821;50.936;6.854;2023-12-22T00:11:33;7.53;;;1.50;;
3613;SDS011;1821;50.936;6.854;2023-12-22T00:12:15;5.50;;;1.40;;
3613;SDS011;1821;50.936;6.854;2023-12-22T00:12:57;6.57;;;1.40;;
3613;SDS011;1821;50.936;6.854;2023-12-22T00:13:39;7.72;;;1.60;;
3613;SDS011;1821;50.936;6.854;2023-12-22T00:14:22;8.18;;;1.70;;
3613;SDS011;1821;50.936;6.854;2023-12-22T00:15:04;7.43;;;1.67;;
3613;SDS011;1821;50.936;6.854;2023-12-22T00:15:47;5.65;;;1.60;;
3613;SDS011;1821;50.936;6.854;2023-12-22T00:16:29;5.80;;;2.15;;
3613;SDS011;1821;50.936;6.854;2023-12-22T00:17:11;8.43;;;2.42;;
3613;SDS011;1821;50.936;6.854;2023-12-22T00:17:56;8.75;;;1.83;;
3613;SDS011;1821;50.936;6.854;2023-12-22T00:18:38;5.13;;;1.40;;
3613;SDS011;1821;50.936;6.854;2023-12-22T00:19:21;8.90;;;1.80;;
3613;SDS011;1821;50.936;6.854;2023-12-22T00:20:04;5.97;;;1.52;;
3613;SDS011;1821;50.936;6.854;2023-12-22T00:20:49;7.32;;;1.90;;
3613;SDS011;1821;50.936;6.854;2023-12-22T00:21:31;9.07;;;1.77;;
3613;SDS011;1821;50.936;6.854;2023-12-22T00:22:13;8.27;;;2.00;;
3613;SDS011;1821;50.936;6.854;2023-12-22T00:22:56;10.00;;;1.90;;
3613;SDS011;1821;50.936;6.854;2023-12-22T00:23:38;8.00;;;2.05;;
3613;SDS011;1821;50.936;6.854;2023-12-22T00:24:21;8.27;;;2.08;;
3613;SDS011;1821;50.936;6.854;2023-12-22T00:25:03;7.65;;;2.00;;
3613;SDS011;1821;50.936;6.854;2023-12-22T00:25:46;8.60;;;1.73;;
3613;SDS011;1821;50.936;6.854;2023-12-22T00:26:28;8.38;;;2.17;;
3613;SDS011;1821;50.936;6.854;2023-12-22T00:27:10;8.25;;;2.45;;
3613;SDS011;1821;50.936;6.854;2023-12-22T00:27:52;6.70;;;1.65;;
3613;SDS011;1821;50.936;6.854;2023-12-22T00:28:35;4.15;;;2.00;;
3613;SDS011;1821;50.936;6.854;2023-12-22T00:29:17;4.95;;;2.08;;
3613;SDS011;1821;50.936;6.854;2023-12-22T00:30:01;6.20;;;2.15;;
3613;SDS011;1821;50.936;6.854;2023-12-22T00:30:44;6.68;;;2.03;;
3613;SDS011;1821;50.936;6.854;2023-12-22T00:31:26;8.20;;;1.65;;
3613;SDS011;1821;50.936;6.854;2023-12-22T00:32:08;8.32;;;1.90;;
3613;SDS011;1821;50.936;6.854;2023-12-22T00:32:55;7.68;;;2.00;;
3613;SDS011;1821;50.936;6.854;2023-12-22T00:33:37;6.57;;;1.98;;
3613;SDS011;1821;50.936;6.854;2023-12-22T00:34:21;4.82;;;2.00;;
3613;SDS011;1821;50.936;6.854;2023-12-22T00:35:04;9.07;;;1.90;;
3613;SDS011;1821;50.936;6.854;2023-12-22T00:35:46;8.95;;;2.30;;
3613;SDS011;1821;50.936;6.854;2023-12-22T00:36:28;11.23;;;2.25;;
3613;SDS011;1821;50.936;6.854;2023-12-22T00:37:11;10.20;;;2.75;;
3613;SDS011;1821;50.936;6.854;2023-12-22T00:37:54;8.32;;;2.33;;
3613;SDS011;1821;50.936;6.854;2023-12-22T00:38:36;7.40;;;2.13;;
3613;SDS011;1821;50.936;6.854;2023-12-22T00:39:19;7.38;;;2.58;;
3613;SDS011;1821;50.936;6.854;2023-12-22T00:40:01;6.72;;;2.30;;
3613;SDS011;1821;50.936;6.854;2023-12-22T00:40:48;6.03;;;1.88;;
3613;SDS011;1821;50.936;6.854;2023-12-22T00:41:30;6.55;;;2.00;;
3613;SDS011;1821;50.936;6.854;2023-12-22T00:42:16;7.18;;;1.98;;
3613;SDS011;1821;50.936;6.854;2023-12-22T00:42:58;8.57;;;2.00;;
3613;SDS011;1821;50.936;6.854;2023-12-22T00:43:40;9.20;;;2.20;;
3613;SDS011;1821;50.936;6.854;2023-12-22T00:44:23;8.25;;;2.67;;
3613;SDS011;1821;50.936;6.854;2023-12-22T00:45:09;12.05;;;3.08;;
3613;SDS011;1821;50.936;6.854;2023-12-22T00:45:52;7.70;;;2.08;;
3613;SDS011;1821;50.936;6.854;2023-12-22T00:46:34;6.57;;;1.88;;
3613;SDS011;1821;50.936;6.854;2023-12-22T00:47:16;6.43;;;2.22;;
3613;SDS011;1821;50.936;6.854;2023-12-22T00:47:59;8.88;;;2.40;;
3613;SDS011;1821;50.936;6.854;2023-12-22T00:48:41;7.10;;;2.20;;
3613;SDS011;1821;50.936;6.854;2023-12-22T00:49:24;5.82;;;2.35;;
3613;SDS011;1821;50.936;6.854;2023-12-22T00:50:07;8.85;;;2.53;;
3613;SDS011;1821;50.936;6.854;2023-12-22T00:50:50;9.52;;;2.20;;
3613;SDS011;1821;50.936;6.854;2023-12-22T00:51:32;8.73;;;1.90;;
3613;SDS011;1821;50.936;6.854;2023-12-22T00:52:14;8.75;;;2.00;;
3613;SDS011;1821;50.936;6.854;2023-12-22T00:52:59;7.82;;;2.20;;
3613;SDS011;1821;50.936;6.854;2023-12-22T00:53:42;9.93;;;2.10;;
3613;SDS011;1821;50.936;6.854;2023-12-22T00:54:24;9.02;;;2.10;;
3613;SDS011;1821;50.936;6.854;2023-12-22T00:55:07;8.07;;;2.38;;
3613;SDS011;1821;50.936;6.854;2023-12-22T00:55:49;8.85;;;2.42;;
3613;SDS011;1821;50.936;6.854;2023-12-22T00:56:31;10.13;;;2.60;;
3613;SDS011;1821;50.936;6.854;2023-12-22T00:57:14;8.18;;;2.60;;
3613;SDS011;1821;50.936;6.854;2023-12-22T00:57:57;6.10;;;2.17;;
3613;SDS011;1821;50.936;6.854;2023-12-22T00:58:39;7.72;;;2.30;;
3613;SDS011;1821;50.936;6.854;2023-12-22T00:59:32;6.50;;;1.80;;
3613;SDS011;1821;50.936;6.854;2023-12-22T01:00:14;6.82;;;1.88;;
3613;SDS011;1821;50.936;6.854;2023-12-22T01:00:57;5.95;;;2.05;;
3613;SDS011;1821;50.936;6.854;2023-12-22T01:01:39;7.22;;;2.45;;
3613;SDS011;1821;50.936;6.854;2023-12-22T01:02:21;7.50;;;2.20;;
3613;SDS011;1821;50.936;6.854;2023-12-22T01:03:03;6.75;;;2.03;;
3613;SDS011;1821;50.936;6.854;2023-12-22T01:03:46;10.63;;;2.50;;
3613;SDS011;1821;50.936;6.854;2023-12-22T01:04:28;8.52;;;2.13;;
3613;SDS011;1821;50.936;6.854;2023-12-22T01:05:10;7.60;;;2.00;;
3613;SDS011;1821;50.936;6.854;2023-12-22T01:05:53;4.93;;;1.88;;
3613;SDS011;1821;50.936;6.854;2023-12-22T01:06:38;5.15;;;1.80;;
3613;SDS011;1821;50.936;6.854;2023-12-22T01:07:21;5.30;;;1.70;;
3613;SDS011;1821;50.936;6.854;2023-12-22T01:08:03;8.07;;;2.30;;
3613;SDS011;1821;50.936;6.854;2023-12-22T01:08:46;8.32;;;2.20;;
3613;SDS011;1821;50.936;6.854;2023-12-22T01:09:31;6.18;;;2.88;;
3613;SDS011;1821;50.936;6.854;2023-12-22T01:10:13;6.95;;;2.83;;
3613;SDS011;1821;50.936;6.854;2023-12-22T01:10:55;9.52;;;2.13;;
3613;SDS011;1821;50.936;6.854;2023-12-22T01:11:41;7.13;;;1.95;;
3613;SDS011;1821;50.936;6.854;2023-12-22T01:12:23;6.13;;;2.05;;
3613;SDS011;1821;50.936;6.854;2023-12-22T01:13:08;9.60;;;2.33;;
3613;SDS011;1821;50.936;6.854;2023-12-22T01:13:50;9.55;;;2.50;;
3613;SDS011;1821;50.936;6.854;2023-12-22T01:14:33;9.10;;;2.50;;
3613;SDS011;1821;50.936;6.854;2023-12-22T01:15:17;10.90;;;2.30;;
3613;SDS011;1821;50.936;6.854;2023-12-22T01:15:59;7.25;;;2.33;;
3613;SDS011;1821;50.936;6.854;2023-12-22T01:16:45;5.85;;;2.00;;
3613;SDS011;1821;50.936;6.854;2023-12-22T01:17:27;6.75;;;2.13;;
3613;SDS011;1821;50.936;6.854;2023-12-22T01:18:10;7.82;;;2.25;;
3613;SDS011;1821;50.936;6.854;2023-12-22T01:18:53;8.60;;;2.10;;
3613;SDS011;1821;50.936;6.854;2023-12-22T01:19:36;11.93;;;3.15;;
3613;SDS011;1821;50.936;6.854;2023-12-22T01:20:18;8.30;;;2.80;;
3613;SDS011;1821;50.936;6.854;2023-12-22T01:21:00;5.50;;;1.90;;
3613;SDS011;1821;50.936;6.854;2023-12-22T01:21:42;5.63;;;1.70;;
3613;SDS011;1821;50.936;6.854;2023-12-22T01:22:25;10.75;;;3.10;;
3613;SDS011;1821;50.936;6.854;2023-12-22T01:23:07;9.63;;;3.38;;
3613;SDS011;1821;50.936;6.854;2023-12-22T01:23:49;9.52;;;3.03;;
3613;SDS011;1821;50.936;6.854;2023-12-22T01:24:33;10.52;;;2.33;;
3613;SDS011;1821;50.936;6.854;2023-12-22T01:25:15;7.07;;;2.10;;
3613;SDS011;1821;50.936;6.854;2023-12-22T01:25:57;9.77;;;2.65;;
3613;SDS011;1821;50.936;6.854;2023-12-22T01:26:39;9.45;;;3.33;;
3613;SDS011;1821;50.936;6.854;2023-12-22T01:27:22;6.05;;;2.55;;
3613;SDS011;1821;50.936;6.854;2023-12-22T01:28:04;9.60;;;2.95;;
3613;SDS011;1821;50.936;6.854;2023-12-22T01:28:46;7.47;;;2.38;;
3613;SDS011;1821;50.936;6.854;2023-12-22T01:29:29;7.50;;;2.50;;
3613;SDS011;1821;50.936;6.854;2023-12-22T01:30:12;8.15;;;2.45;;
3613;SDS011;1821;50.936;6.854;2023-12-22T01:30:54;8.50;;;2.20;;
3613;SDS011;1821;50.936;6.854;2023-12-22T01:31:37;9.43;;;2.78;;
3613;SDS011;1821;50.936;6.854;2023-12-22T01:32:19;9.40;;;2.72;;
3613;SDS011;1821;50.936;6.854;2023-12-22T01:33:01;10.50;;;2.30;;
3613;SDS011;1821;50.936;6.854;2023-12-22T01:33:44;8.75;;;2.80;;
3613;SDS011;1821;50.936;6.854;2023-12-22T01:34:27;8.52;;;2.58;;
3613;SDS011;1821;50.936;6.854;2023-12-22T01:35:09;6.13;;;2.40;;
3613;SDS011;1821;50.936;6.854;2023-12-22T01:35:52;8.73;;;2.80;;
3613;SDS011;1821;50.936;6.854;2023-12-22T01:36:34;12.05;;;3.15;;
3613;SDS011;1821;50.936;6.854;2023-12-22T01:37:16;8.60;;;2.63;;
3613;SDS011;1821;50.936;6.854;2023-12-22T01:37:59;11.70;;;2.30;;
3613;SDS011;1821;50.936;6.854;2023-12-22T01:38:41;6.45;;;2.08;;
3613;SDS011;1821;50.936;6.854;2023-12-22T01:39:25;10.20;;;2.88;;
3613;SDS011;1821;50.936;6.854;2023-12-22T01:40:09;9.45;;;2.35;;
3613;SDS011;1821;50.936;6.854;2023-12-22T01:40:52;9.80;;;2.80;;
3613;SDS011;1821;50.936;6.854;2023-12-22T01:41:34;10.88;;;2.63;;
3613;SDS011;1821;50.936;6.854;2023-12-22T01:42:17;9.90;;;2.78;;
3613;SDS011;1821;50.936;6.854;2023-12-22T01:42:59;10.20;;;2.50;;
3613;SDS011;1821;50.936;6.854;2023-12-22T01:43:43;8.85;;;2.80;;
3613;SDS011;1821;50.936;6.854;2023-12-22T01:44:25;7.32;;;2.40;;
3613;SDS011;1821;50.936;6.854;2023-12-22T01:45:09;10.65;;;3.00;;
3613;SDS011;1821;50.936;6.854;2023-12-22T01:45:53;9.63;;;2.70;;
3613;SDS011;1821;50.936;6.854;2023-12-22T01:46:38;12.73;;;2.72;;
3613;SDS011;1821;50.936;6.854;2023-12-22T01:47:21;8.35;;;2.28;;
3613;SDS011;1821;50.936;6.854;2023-12-22T01:48:04;8.23;;;2.53;;
3613;SDS011;1821;50.936;6.854;2023-12-22T01:48:47;8.55;;;2.40;;
3613;SDS011;1821;50.936;6.854;2023-12-22T01:49:29;10.43;;;2.50;;
3613;SDS011;1821;50.936;6.854;2023-12-22T01:50:12;9.07;;;2.60;;
3613;SDS011;1821;50.936;6.854;2023-12-22T01:50:55;8.95;;;2.60;;
3613;SDS011;1821;50.936;6.854;2023-12-22T01:51:41;10.65;;;2.40;;
3613;SDS011;1821;50.936;6.854;2023-12-22T01:52:24;9.80;;;2.30;;
3613;SDS011;1821;50.936;6.854;2023-12-22T01:53:07;13.02;;;3.28;;
3613;SDS011;1821;50.936;6.854;2023-12-22T01:53:49;12.55;;;3.35;;
3613;SDS011;1821;50.936;6.854;2023-12-22T01:54:34;9.95;;;3.10;;
3613;SDS011;1821;50.936;6.854;2023-12-22T01:55:17;12.40;;;2.50;;
3613;SDS011;1821;50.936;6.854;2023-12-22T01:56:03;12.52;;;2.78;;
3613;SDS011;1821;50.936;6.854;2023-12-22T01:56:45;9.75;;;2.45;;
3613;SDS011;1821;50.936;6.854;2023-12-22T01:57:30;9.65;;;2.58;;
3613;SDS011;1821;50.936;6.854;2023-12-22T01:58:13;10.93;;;2.15;;
3613;SDS011;1821;50.936;6.854;2023-12-22T01:58:59;10.65;;;2.60;;
3613;SDS011;1821;50.936;6.854;2023-12-22T01:59:42;9.63;;;2.55;;
3613;SDS011;1821;50.936;6.854;2023-12-22T02:00:25;11.68;;;2.63;;
3613;SDS011;1821;50.936;6.854;2023-12-22T02:01:07;8.90;;;2.72;;
3613;SDS011;1821;50.936;6.854;2023-12-22T02:01:53;12.05;;;2.92;;
3613;SDS011;1821;50.936;6.854;2023-12-22T02:02:35;14.57;;;3.15;;
3613;SDS011;1821;50.936;6.854;2023-12-22T02:03:19;14.68;;;3.38;;
3613;SDS011;1821;50.936;6.854;2023-12-22T02:04:02;9.95;;;3.08;;
3613;SDS011;1821;50.936;6.854;2023-12-22T02:04:45;9.93;;;2.85;;
3613;SDS011;1821;50.936;6.854;2023-12-22T02:05:29;11.05;;;3.15;;
3613;SDS011;1821;50.936;6.854;2023-12-22T02:06:11;9.98;;;3.28;;
3613;SDS011;1821;50.936;6.854;2023-12-22T02:06:56;8.10;;;2.80;;
3613;SDS011;1821;50.936;6.854;2023-12-22T02:07:40;9.30;;;3.20;;
3613;SDS011;1821;50.936;6.854;2023-12-22T02:08:23;7.68;;;3.00;;
3613;SDS011;1821;50.936;6.854;2023-12-22T02:09:06;10.45;;;3.10;;
3613;SDS011;1821;50.936;6.854;2023-12-22T02:09:48;10.00;;;2.80;;
3613;SDS011;1821;50.936;6.854;2023-12-22T02:10:31;8.45;;;2.88;;
3613;SDS011;1821;50.936;6.854;2023-12-22T02:11:13;10.30;;;2.80;;
3613;SDS011;1821;50.936;6.854;2023-12-22T02:11:56;13.35;;;3.40;;
3613;SDS011;1821;50.936;6.854;2023-12-22T02:12:38;8.55;;;2.75;;
3613;SDS011;1821;50.936;6.854;2023-12-22T02:13:21;8.80;;;2.88;;
3613;SDS011;1821;50.936;6.854;2023-12-22T02:14:03;10.23;;;2.72;;
3613;SDS011;1821;50.936;6.854;2023-12-22T02:14:46;9.50;;;2.65;;
3613;SDS011;1821;50.936;6.854;2023-12-22T02:15:28;12.07;;;2.70;;
3613;SDS011;1821;50.936;6.854;2023-12-22T02:16:19;10.43;;;2.90;;
3613;SDS011;1821;50.936;6.854;2023-12-22T02:17:25;11.13;;;3.45;;
3613;SDS011;1821;50.936;6.854;2023-12-22T02:18:24;10.85;;;3.13;;
3613;SDS011;1821;50.936;6.854;2023-12-22T02:19:22;12.77;;;3.33;;
3613;SDS011;1821;50.936;6.854;2023-12-22T02:20:21;10.30;;;2.80;;
3613;SDS011;1821;50.936;6.854;2023-12-22T02:21:03;14.93;;;3.63;;
3613;SDS011;1821;50.936;6.854;2023-12-22T02:22:01;14.70;;;3.25;;
3613;SDS011;1821;50.936;6.854;2023-12-22T02:22:52;12.77;;;2.92;;
3613;SDS011;1821;50.936;6.854;2023-12-22T02:23:38;10.93;;;2.63;;
3613;SDS011;1821;50.936;6.854;2023-12-22T02:24:20;10.05;;;3.05;;
3613;SDS011;1821;50.936;6.854;2023-12-22T02:25:02;8.60;;;2.85;;
3613;SDS011;1821;50.936;6.854;2023-12-22T02:25:52;10.27;;;2.92;;
3613;SDS011;1821;50.936;6.854;2023-12-22T02:26:42;15.10;;;3.00;;
3613;SDS011;1821;50.936;6.854;2023-12-22T02:27:32;10.07;;;2.60;;
3613;SDS011;1821;50.936;6.854;2023-12-22T02:28:19;10.32;;;3.10;;
3613;SDS011;1821;50.936;6.854;2023-12-22T02:29:02;14.50;;;3.13;;
3613;SDS011;1821;50.936;6.854;2023-12-22T02:29:49;13.05;;;3.15;;
3613;SDS011;1821;50.936;6.854;2023-12-22T02:30:56;14.82;;;3.58;;
3613;SDS011;1821;50.936;6.854;2023-12-22T02:31:40;17.15;;;3.92;;
3613;SDS011;1821;50.936;6.854;2023-12-22T02:32:31;10.93;;;3.30;;
3613;SDS011;1821;50.936;6.854;2023-12-22T02:33:15;14.35;;;3.35;;
3613;SDS011;1821;50.936;6.854;2023-12-22T02:33:58;13.98;;;3.17;;
3613;SDS011;1821;50.936;6.854;2023-12-22T02:34:41;9.98;;;3.17;;
3613;SDS011;1821;50.936;6.854;2023-12-22T02:35:25;14.18;;;3.72;;
3613;SDS011;1821;50.936;6.854;2023-12-22T02:36:09;11.23;;;3.60;;
3613;SDS011;1821;50.936;6.854;2023-12-22T02:36:53;9.27;;;3.10;;
3613;SDS011;1821;50.936;6.854;2023-12-22T02:37:37;11.68;;;3.50;;
3613;SDS011;1821;50.936;6.854;2023-12-22T02:38:21;14.07;;;2.60;;
3613;SDS011;1821;50.936;6.854;2023-12-22T02:39:04;12.98;;;3.13;;
3613;SDS011;1821;50.936;6.854;2023-12-22T02:39:50;14.43;;;3.47;;
3613;SDS011;1821;50.936;6.854;2023-12-22T02:40:34;15.15;;;3.50;;
3613;SDS011;1821;50.936;6.854;2023-12-22T02:41:17;12.50;;;3.30;;
3613;SDS011;1821;50.936;6.854;2023-12-22T02:41:59;14.88;;;3.83;;
3613;SDS011;1821;50.936;6.854;2023-12-22T02:42:42;12.65;;;4.00;;
3613;SDS011;1821;50.936;6.854;2023-12-22T02:43:28;12.60;;;3.78;;
3613;SDS011;1821;50.936;6.854;2023-12-22T02:44:10;15.60;;;3.33;;
3613;SDS011;1821;50.936;6.854;2023-12-22T02:44:53;21.20;;;4.00;;
3613;SDS011;1821;50.936;6.854;2023-12-22T02:45:38;10.73;;;3.03;;
3613;SDS011;1821;50.936;6.854;2023-12-22T02:46:21;9.10;;;3.03;;
3613;SDS011;1821;50.936;6.854;2023-12-22T02:47:03;10.75;;;3.00;;
3613;SDS011;1821;50.936;6.854;2023-12-22T02:47:46;10.25;;;3.20;;
3613;SDS011;1821;50.936;6.854;2023-12-22T02:48:29;10.68;;;4.15;;
3613;SDS011;1821;50.936;6.854;2023-12-22T02:49:11;15.90;;;3.80;;
3613;SDS011;1821;50.936;6.854;2023-12-22T02:49:55;12.00;;;3.20;;
3613;SDS011;1821;50.936;6.854;2023-12-22T02:50:38;11.20;;;3.30;;
3613;SDS011;1821;50.936;6.854;2023-12-22T02:51:22;9.35;;;3.58;;
3613;SDS011;1821;50.936;6.854;2023-12-22T02:52:05;9.93;;;3.45;;
3613;SDS011;1821;50.936;6.854;2023-12-22T02:52:47;10.35;;;3.30;;
3613;SDS011;1821;50.936;6.854;2023-12-22T02:53:29;11.40;;;3.70;;
3613;SDS011;1821;50.936;6.854;2023-12-22T02:54:12;12.68;;;4.15;;
3613;SDS011;1821;50.936;6.854;2023-12-22T02:54:54;12.05;;;2.90;;
3613;SDS011;1821;50.936;6.854;2023-12-22T02:55:37;13.93;;;3.67;;
3613;SDS011;1821;50.936;6.854;2023-12-22T02:56:22;18.10;;;3.70;;
3613;SDS011;1821;50.936;6.854;2023-12-22T02:57:04;15.05;;;3.40;;
3613;SDS011;1821;50.936;6.854;2023-12-22T02:57:47;11.23;;;3.40;;
3613;SDS011;1821;50.936;6.854;2023-12-22T02:58:30;11.80;;;3.80;;
3613;SDS011;1821;50.936;6.854;2023-12-22T02:59:12;9.25;;;3.20;;
3613;SDS011;1821;50.936;6.854;2023-12-22T02:59:55;11.32;;;3.80;;
3613;SDS011;1821;50.936;6.854;2023-12-22T03:00:40;9.15;;;3.20;;
3613;SDS011;1821;50.936;6.854;2023-12-22T03:01:22;15.30;;;4.20;;
3613;SDS011;1821;50.936;6.854;2023-12-22T03:02:05;12.40;;;3.00;;
3613;SDS011;1821;50.936;6.854;2023-12-22T03:02:50;13.00;;;3.13;;
3613;SDS011;1821;50.936;6.854;2023-12-22T03:03:32;14.98;;;3.80;;
3613;SDS011;1821;50.936;6.854;2023-12-22T03:04:14;16.50;;;3.90;;
3613;SDS011;1821;50.936;6.854;2023-12-22T03:04:58;14.25;;;3.40;;
3613;SDS011;1821;50.936;6.854;2023-12-22T03:05:40;11.48;;;3.50;;
3613;SDS011;1821;50.936;6.854;2023-12-22T03:06:23;10.02;;;3.08;;
3613;SDS011;1821;50.936;6.854;2023-12-22T03:07:05;13.10;;;3.97;;
3613;SDS011;1821;50.936;6.854;2023-12-22T03:07:48;15.00;;;3.40;;
3613;SDS011;1821;50.936;6.854;2023-12-22T03:08:31;13.00;;;3.17;;
3613;SDS011;1821;50.936;6.854;2023-12-22T03:09:13;10.90;;;3.50;;
3613;SDS011;1821;50.936;6.854;2023-12-22T03:09:57;10.40;;;2.95;;
3613;SDS011;1821;50.936;6.854;2023-12-22T03:10:39;9.45;;;3.28;;
3613;SDS011;1821;50.936;6.854;2023-12-22T03:11:22;11.35;;;3.50;;
3613;SDS011;1821;50.936;6.854;2023-12-22T03:12:04;12.20;;;3.00;;
3613;SDS011;1821;50.936;6.854;2023-12-22T03:12:47;12.43;;;3.42;;
3613;SDS011;1821;50.936;6.854;2023-12-22T03:13:30;12.52;;;3.90;;
3613;SDS011;1821;50.936;6.854;2023-12-22T03:14:15;13.05;;;3.28;;
3613;SDS011;1821;50.936;6.854;2023-12-22T03:14:57;8.90;;;2.85;;
3613;SDS011;1821;50.936;6.854;2023-12-22T03:15:39;12.80;;;3.78;;
3613;SDS011;1821;50.936;6.854;2023-12-22T03:16:22;13.60;;;3.45;;
3613;SDS011;1821;50.936;6.854;2023-12-22T03:17:05;12.80;;;3.55;;
3613;SDS011;1821;50.936;6.854;2023-12-22T03:17:48;12.27;;;3.25;;
3613;SDS011;1821;50.936;6.854;2023-12-22T03:18:30;11.43;;;3.30;;
3613;SDS011;1821;50.936;6.854;2023-12-22T03:19:12;10.55;;;2.90;;
3613;SDS011;1821;50.936;6.854;2023-12-22T03:19:55;12.98;;;4.05;;
3613;SDS011;1821;50.936;6.854;2023-12-22T03:20:37;14.18;;;4.38;;
3613;SDS011;1821;50.936;6.854;2023-12-22T03:21:20;15.00;;;3.67;;
3613;SDS011;1821;50.936;6.854;2023-12-22T03:22:02;13.73;;;3.45;;
3613;SDS011;1821;50.936;6.854;2023-12-22T03:22:44;11.95;;;3.00;;
3613;SDS011;1821;50.936;6.854;2023-12-22T03:23:26;15.32;;;3.40;;
3613;SDS011;1821;50.936;6.854;2023-12-22T03:24:09;16.80;;;3.83;;
3613;SDS011;1821;50.936;6.854;2023-12-22T03:24:51;15.20;;;3.80;;
3613;SDS011;1821;50.936;6.854;2023-12-22T03:25:34;11.27;;;3.30;;
3613;SDS011;1821;50.936;6.854;2023-12-22T03:26:16;12.77;;;3.20;;
3613;SDS011;1821;50.936;6.854;2023-12-22T03:26:58;12.95;;;4.18;;
3613;SDS011;1821;50.936;6.854;2023-12-22T03:27:40;11.20;;;3.55;;
3613;SDS011;1821;50.936;6.854;2023-12-22T03:28:25;11.52;;;3.60;;
3613;SDS011;1821;50.936;6.854;2023-12-22T03:29:08;16.10;;;4.05;;
3613;SDS011;1821;50.936;6.854;2023-12-22T03:29:53;13.52;;;4.15;;
3613;SDS011;1821;50.936;6.854;2023-12-22T03:30:35;14.02;;;3.85;;
3613;SDS011;1821;50.936;6.854;2023-12-22T03:31:19;15.20;;;3.95;;
3613;SDS011;1821;50.936;6.854;2023-12-22T03:32:02;9.52;;;3.40;;
3613;SDS011;1821;50.936;6.854;2023-12-22T03:32:44;15.68;;;3.85;;
3613;SDS011;1821;50.936;6.854;2023-12-22T03:33:26;17.45;;;4.20;;
3613;SDS011;1821;50.936;6.854;2023-12-22T03:34:09;11.35;;;3.60;;
3613;SDS011;1821;50.936;6.854;2023-12-22T03:34:52;12.23;;;3.10;;
3613;SDS011;1821;50.936;6.854;2023-12-22T03:35:34;12.75;;;3.75;;
3613;SDS011;1821;50.936;6.854;2023-12-22T03:36:20;11.70;;;3.55;;
3613;SDS011;1821;50.936;6.854;2023-12-22T03:37:02;14.65;;;4.38;;
3613;SDS011;1821;50.936;6.854;2023-12-22T03:37:45;14.00;;;4.88;;
3613;SDS011;1821;50.936;6.854;2023-12-22T03:38:30;12.10;;;4.07;;
3613;SDS011;1821;50.936;6.854;2023-12-22T03:39:12;14.13;;;3.25;;
3613;SDS011;1821;50.936;6.854;2023-12-22T03:39:54;14.20;;;3.78;;
3613;SDS011;1821;50.936;6.854;2023-12-22T03:40:36;13.00;;;3.70;;
3613;SDS011;1821;50.936;6.854;2023-12-22T03:41:19;14.05;;;3.42;;
3613;SDS011;1821;50.936;6.854;2023-12-22T03:42:01;15.95;;;4.00;;
3613;SDS011;1821;50.936;6.854;2023-12-22T03:42:44;13.93;;;3.88;;
3613;SDS011;1821;50.936;6.854;2023-12-22T03:43:26;14.23;;;3.53;;
3613;SDS011;1821;50.936;6.854;2023-12-22T03:44:09;12.07;;;3.75;;
3613;SDS011;1821;50.936;6.854;2023-12-22T03:44:51;16.55;;;4.10;;
3613;SDS011;1821;50.936;6.854;2023-12-22T03:45:34;14.98;;;4.00;;
3613;SDS011;1821;50.936;6.854;2023-12-22T03:46:16;15.48;;;4.60;;
3613;SDS011;1821;50.936;6.854;2023-12-22T03:47:00;13.27;;;4.75;;
3613;SDS011;1821;50.936;6.854;2023-12-22T03:47:42;12.60;;;4.10;;
3613;SDS011;1821;50.936;6.854;2023-12-22T03:48:28;13.23;;;4.65;;
3613;SDS011;1821;50.936;6.854;2023-12-22T03:49:10;11.82;;;4.00;;
3613;SDS011;1821;50.936;6.854;2023-12-22T03:49:52;9.90;;;3.58;;
3613;SDS011;1821;50.936;6.854;2023-12-22T03:50:34;14.27;;;4.20;;
3613;SDS011;1821;50.936;6.854;2023-12-22T03:51:17;15.07;;;3.85;;
3613;SDS011;1821;50.936;6.854;2023-12-22T03:51:59;9.90;;;3.25;;
3613;SDS011;1821;50.936;6.854;2023-12-22T03:52:42;13.43;;;3.42;;
3613;SDS011;1821;50.936;6.854;2023-12-22T03:53:24;13.88;;;3.55;;
3613;SDS011;1821;50.936;6.854;2023-12-22T03:54:07;13.90;;;3.38;;
3613;SDS011;1821;50.936;6.854;2023-12-22T03:54:50;13.50;;;3.30;;
3613;SDS011;1821;50.936;6.854;2023-12-22T03:55:32;9.73;;;3.40;;
3613;SDS011;1821;50.936;6.854;2023-12-22T03:56:14;12.32;;;3.70;;
3613;SDS011;1821;50.936;6.854;2023-12-22T03:56:57;13.77;;;3.20;;
3613;SDS011;1821;50.936;6.854;2023-12-22T03:57:39;12.90;;;3.10;;
3613;SDS011;1821;50.936;6.854;2023-12-22T03:58:21;10.20;;;3.20;;
3613;SDS011;1821;50.936;6.854;2023-12-22T03:59:04;16.95;;;3.47;;
3613;SDS011;1821;50.936;6.854;2023-12-22T03:59:46;11.98;;;3.15;;
3613;SDS011;1821;50.936;6.854;2023-12-22T04:00:29;11.40;;;2.97;;
3613;SDS011;1821;50.936;6.854;2023-12-22T04:01:13;11.38;;;3.05;;
3613;SDS011;1821;50.936;6.854;2023-12-22T04:01:56;9.63;;;3.10;;
3613;SDS011;1821;50.936;6.854;2023-12-22T04:02:39;10.65;;;3.50;;
3613;SDS011;1821;50.936;6.854;2023-12-22T04:03:22;12.68;;;3.47;;
3613;SDS011;1821;50.936;6.854;2023-12-22T04:04:05;11.65;;;3.20;;
3613;SDS011;1821;50.936;6.854;2023-12-22T04:04:50;13.00;;;3.20;;
3613;SDS011;1821;50.936;6.854;2023-12-22T04:05:32;10.18;;;2.75;;
3613;SDS011;1821;50.936;6.854;2023-12-22T04:06:14;11.05;;;3.33;;
3613;SDS011;1821;50.936;6.854;2023-12-22T04:06:56;11.80;;;2.90;;
3613;SDS011;1821;50.936;6.854;2023-12-22T04:07:39;9.32;;;2.70;;
3613;SDS011;1821;50.936;6.854;2023-12-22T04:08:21;13.13;;;2.80;;
3613;SDS011;1821;50.936;6.854;2023-12-22T04:09:03;12.60;;;3.08;;
3613;SDS011;1821;50.936;6.854;2023-12-22T04:09:47;13.88;;;3.20;;
3613;SDS011;1821;50.936;6.854;2023-12-22T04:10:29;12.23;;;2.60;;
3613;SDS011;1821;50.936;6.854;2023-12-22T04:11:12;8.63;;;2.40;;
3613;SDS011;1821;50.936;6.854;2023-12-22T04:11:54;10.30;;;2.50;;
3613;SDS011;1821;50.936;6.854;2023-12-22T04:12:36;6.88;;;2.50;;
3613;SDS011;1821;50.936;6.854;2023-12-22T04:13:21;8.52;;;2.97;;
3613;SDS011;1821;50.936;6.854;2023-12-22T04:14:03;9.95;;;2.90;;
3613;SDS011;1821;50.936;6.854;2023-12-22T04:14:45;11.80;;;3.40;;
3613;SDS011;1821;50.936;6.854;2023-12-22T04:15:27;11.82;;;3.20;;
3613;SDS011;1821;50.936;6.854;2023-12-22T04:16:09;5.72;;;2.70;;
3613;SDS011;1821;50.936;6.854;2023-12-22T04:16:52;7.10;;;2.97;;
3613;SDS011;1821;50.936;6.854;2023-12-22T04:17:37;7.70;;;2.65;;
3613;SDS011;1821;50.936;6.854;2023-12-22T04:18:19;9.50;;;2.58;;
3613;SDS011;1821;50.936;6.854;2023-12-22T04:19:02;6.95;;;2.45;;
3613;SDS011;1821;50.936;6.854;2023-12-22T04:19:45;9.85;;;2.72;;
3613;SDS011;1821;50.936;6.854;2023-12-22T04:20:30;11.10;;;2.78;;
3613;SDS011;1821;50.936;6.854;2023-12-22T04:21:13;9.82;;;3.25;;
3613;SDS011;1821;50.936;6.854;2023-12-22T04:21:55;8.55;;;3.60;;
3613;SDS011;1821;50.936;6.854;2023-12-22T04:22:37;11.20;;;2.83;;
3613;SDS011;1821;50.936;6.854;2023-12-22T04:23:20;10.55;;;2.70;;
3613;SDS011;1821;50.936;6.854;2023-12-22T04:24:02;9.80;;;3.05;;
3613;SDS011;1821;50.936;6.854;2023-12-22T04:24:45;11.93;;;2.95;;
3613;SDS011;1821;50.936;6.854;2023-12-22T04:25:28;9.35;;;3.13;;
3613;SDS011;1821;50.936;6.854;2023-12-22T04:26:13;9.55;;;3.13;;
3613;SDS011;1821;50.936;6.854;2023-12-22T04:26:58;13.48;;;3.13;;